Time;durP1;ratioP1;P1;durP2;ratioP2;P2;SDS_P1;SDS_P2;PMS_P1;PMS_P2;Temp;Humidity;BMP_temperature;BMP_pressure;BME280_temperature;BME280_humidity;BME280_pressure;Samples;Min_cycle;Max_cycle;Signal;HPM_P1;HPM_P2
2021/07/02 00:02:47;;;;;;;29.05;17.38;;;;;;;15.46;100.00;101222.53;6246922;28;20048;-70
2021/07/02 00:05:48;;;;;;;33.70;16.60;;;;;;;15.50;100.00;101224.03;6246915;28;20493;-74
2021/07/02 00:08:49;;;;;;;32.67;17.77;;;;;;;15.46;100.00;101214.59;6246835;28;20058;-72
2021/07/02 00:11:51;;;;;;;31.27;16.98;;;;;;;15.35;100.00;101217.09;6246946;28;20061;-74
2021/07/02 00:14:52;;;;;;;33.20;18.15;;;;;;;15.26;100.00;101218.56;6246856;28;20053;-74
2021/07/02 00:17:55;;;;;;;27.63;16.77;;;;;;;15.38;100.00;101214.25;6246618;28;20054;-72
2021/07/02 00:20:56;;;;;;;27.10;16.08;;;;;;;15.39;100.00;101222.06;6246730;28;20420;-71
2021/07/02 00:23:58;;;;;;;34.80;18.55;;;;;;;15.18;100.00;101213.75;6246841;28;20489;-75
2021/07/02 00:26:59;;;;;;;34.55;19.60;;;;;;;15.25;100.00;101221.28;6246780;28;20049;-74
2021/07/02 00:30:00;;;;;;;35.90;18.80;;;;;;;15.18;100.00;101215.56;6246540;28;20049;-74
2021/07/02 00:33:03;;;;;;;31.17;17.60;;;;;;;15.16;100.00;101220.94;6246888;28;20049;-74
2021/07/02 00:36:05;;;;;;;35.88;16.73;;;;;;;15.28;100.00;101219.31;6246368;28;20616;-73
2021/07/02 00:39:07;;;;;;;35.60;17.98;;;;;;;15.16;100.00;101220.94;6246709;28;20049;-74
2021/07/02 00:42:09;;;;;;;29.48;16.40;;;;;;;15.23;100.00;101219.59;6246456;28;20136;-73
2021/07/02 00:45:10;;;;;;;33.58;16.45;;;;;;;15.17;100.00;101233.25;6246366;28;20061;-71
2021/07/02 00:48:13;;;;;;;33.08;17.15;;;;;;;15.16;100.00;101228.88;6246324;28;20056;-73
2021/07/02 00:51:15;;;;;;;28.02;16.67;;;;;;;15.22;100.00;101223.22;6246636;28;20056;-73
2021/07/02 00:54:16;;;;;;;29.17;17.00;;;;;;;15.33;100.00;101221.66;6246503;28;20052;-71
2021/07/02 00:57:17;;;;;;;38.78;19.02;;;;;;;15.18;100.00;101218.22;6251060;28;20049;-74
2021/07/02 01:00:19;;;;;;;37.60;19.83;;;;;;;15.29;100.00;101212.19;6251231;28;20489;-73
2021/07/02 01:03:21;;;;;;;39.40;19.13;;;;;;;15.32;100.00;101212.84;6251099;28;20053;-74
2021/07/02 01:06:24;;;;;;;58.22;26.10;;;;;;;15.20;100.00;101211.00;6251037;28;20053;-70
2021/07/02 01:09:26;;;;;;;48.25;25.20;;;;;;;15.13;100.00;101207.06;6250915;28;20053;-73
2021/07/02 01:12:28;;;;;;;65.38;29.10;;;;;;;15.10;100.00;101208.09;6251170;28;20049;-71
2021/07/02 01:15:29;;;;;;;83.35;31.63;;;;;;;15.05;100.00;101201.44;6250770;28;20070;-72
2021/07/02 01:18:31;;;;;;;67.88;29.27;;;;;;;15.09;100.00;101201.13;6251022;28;20049;-75
2021/07/02 01:21:35;;;;;;;66.03;28.60;;;;;;;14.99;100.00;101202.69;6250972;28;20057;-75
2021/07/02 01:24:36;;;;;;;80.47;30.00;;;;;;;15.09;100.00;101200.28;6250899;28;20515;-74
2021/07/02 01:27:38;;;;;;;72.97;28.45;;;;;;;14.98;100.00;101191.22;6250623;28;20045;-74
2021/07/02 01:30:40;;;;;;;64.32;26.77;;;;;;;15.12;100.00;101200.91;6250840;28;20145;-73
2021/07/02 01:33:42;;;;;;;65.95;27.88;;;;;;;15.02;100.00;101194.50;6250712;28;20045;-70
2021/07/02 01:36:44;;;;;;;74.82;27.45;;;;;;;15.02;100.00;101201.59;6250490;28;20053;-73
2021/07/02 01:39:46;;;;;;;88.20;28.48;;;;;;;15.04;100.00;101205.03;6250490;28;20057;-70
2021/07/02 01:42:48;;;;;;;72.55;28.30;;;;;;;14.97;100.00;101194.81;6250158;28;20417;-74
2021/07/02 01:45:49;;;;;;;68.60;29.00;;;;;;;15.01;100.00;101200.75;6250341;28;20045;-74
2021/07/02 01:48:50;;;;;;;70.88;27.95;;;;;;;15.04;100.00;101200.56;6249954;28;20049;-76
2021/07/02 01:51:53;;;;;;;77.18;27.20;;;;;;;15.06;100.00;101206.59;6250375;28;20049;-74
2021/07/02 01:54:54;;;;;;;78.18;28.77;;;;;;;15.00;100.00;101204.38;6250314;28;20052;-74
2021/07/02 01:57:56;;;;;;;86.35;32.88;;;;;;;15.02;100.00;101213.03;6250132;28;20058;-74
2021/07/02 02:00:57;;;;;;;94.38;36.35;;;;;;;15.03;100.00;101216.53;6249898;28;20072;-73
2021/07/02 02:03:59;;;;;;;108.57;38.03;;;;;;;14.94;100.00;101208.25;6250040;28;20055;-76
2021/07/02 02:07:01;;;;;;;96.20;35.80;;;;;;;14.88;100.00;101200.69;6249806;28;20079;-74
2021/07/02 02:10:03;;;;;;;93.13;35.22;;;;;;;14.96;100.00;101205.50;6249684;28;20053;-73
2021/07/02 02:13:05;;;;;;;88.22;35.80;;;;;;;14.92;100.00;101198.72;6249402;28;20394;-72
2021/07/02 02:16:06;;;;;;;80.47;34.42;;;;;;;14.93;100.00;101208.34;6249283;28;20052;-74
2021/07/02 02:19:08;;;;;;;74.88;34.20;;;;;;;15.04;100.00;101205.03;6249750;28;20053;-70
2021/07/02 02:22:10;;;;;;;77.68;33.90;;;;;;;14.89;100.00;101215.63;6249453;28;20049;-71
2021/07/02 02:25:12;;;;;;;74.93;34.13;;;;;;;14.82;100.00;101216.97;6249415;28;20052;-74
2021/07/02 02:28:13;;;;;;;75.03;31.65;;;;;;;14.76;100.00;101217.38;6249149;28;20143;-74
2021/07/02 02:31:15;;;;;;;78.72;31.42;;;;;;;14.76;100.00;101225.31;6249507;28;20080;-74
2021/07/02 02:34:16;;;;;;;66.22;30.95;;;;;;;14.81;100.00;101217.09;6248000;28;20041;-73
2021/07/02 02:37:19;;;;;;;78.60;31.35;;;;;;;14.84;100.00;101219.50;6248898;28;20050;-74
2021/07/02 02:40:21;;;;;;;85.22;30.95;;;;;;;14.75;100.00;101218.31;6249045;28;20053;-75
2021/07/02 02:43:22;;;;;;;75.65;29.02;;;;;;;14.83;100.00;101225.75;6248851;28;20041;-71
2021/07/02 02:46:23;;;;;;;74.85;28.23;;;;;;;14.77;100.00;101221.72;6248752;28;20045;-70
2021/07/02 02:49:25;;;;;;;88.18;29.85;;;;;;;14.60;100.00;101225.41;6248587;28;20053;-72
2021/07/02 02:52:28;;;;;;;71.63;29.83;;;;;;;14.66;100.00;101232.97;6248919;28;20041;-72
2021/07/02 02:55:29;;;;;;;76.13;29.27;;;;;;;14.67;100.00;101226.75;6248409;28;20049;-73
2021/07/02 02:58:31;;;;;;;75.60;29.85;;;;;;;14.59;100.00;101223.72;6248423;28;20424;-73
2021/07/02 03:01:32;;;;;;;57.15;28.48;;;;;;;14.65;100.00;101225.13;6248432;28;20389;-72
2021/07/02 03:04:35;;;;;;;68.70;30.45;;;;;;;14.69;100.00;101229.28;6248523;28;20052;-71
2021/07/02 03:07:41;;;;;;;71.75;30.23;;;;;;;14.54;100.00;101235.53;6248180;28;20052;-72
2021/07/02 03:10:43;;;;;;;73.88;32.47;;;;;;;14.51;100.00;101238.38;6248457;28;20554;-72
2021/07/02 03:13:44;;;;;;;76.90;34.92;;;;;;;14.53;100.00;101242.59;6248355;28;20049;-73
2021/07/02 03:16:46;;;;;;;79.50;32.30;;;;;;;14.59;100.00;101247.53;6248152;28;20492;-72
2021/07/02 03:19:47;;;;;;;78.10;33.97;;;;;;;14.52;100.00;101248.84;6247694;28;20056;-73
2021/07/02 03:22:50;;;;;;;85.05;36.00;;;;;;;14.55;100.00;101250.47;6248235;28;20195;-72
2021/07/02 03:25:52;;;;;;;80.68;33.15;;;;;;;14.51;100.00;101255.09;6247986;28;20490;-72
2021/07/02 03:28:53;;;;;;;85.47;33.70;;;;;;;14.50;100.00;101260.47;6247789;28;20053;-72
2021/07/02 03:31:54;;;;;;;82.80;34.80;;;;;;;14.65;100.00;101252.41;6248083;28;20056;-72
2021/07/02 03:34:56;;;;;;;68.40;33.40;;;;;;;14.50;100.00;101263.97;6247689;28;20042;-72
2021/07/02 03:37:58;;;;;;;89.30;34.08;;;;;;;14.51;100.00;101265.66;6247717;28;20049;-72
2021/07/02 03:41:00;;;;;;;87.25;33.53;;;;;;;14.49;100.00;101270.22;6247862;28;20052;-72
2021/07/02 03:44:01;;;;;;;83.47;33.88;;;;;;;14.42;100.00;101274.13;6247634;28;20060;-72
2021/07/02 03:47:03;;;;;;;77.45;31.58;;;;;;;14.46;100.00;101280.94;6247333;28;20045;-72
2021/07/02 03:50:05;;;;;;;93.40;32.58;;;;;;;14.39;100.00;101283.06;6247212;28;20060;-73
2021/07/02 03:53:08;;;;;;;77.70;30.45;;;;;;;14.42;100.00;101279.41;6247581;28;20052;-73
2021/07/02 03:56:09;;;;;;;73.45;29.08;;;;;;;14.40;100.00;101291.88;6246798;28;20497;-72
2021/07/02 03:59:11;;;;;;;71.13;26.35;;;;;;;14.41;100.00;101294.44;6247296;28;20053;-72
2021/07/02 04:02:12;;;;;;;76.35;28.13;;;;;;;14.41;100.00;101288.28;6247199;28;20060;-73
2021/07/02 04:05:14;;;;;;;69.80;27.20;;;;;;;14.38;100.00;101291.97;6246581;28;20408;-72
2021/07/02 04:08:17;;;;;;;58.60;24.88;;;;;;;14.43;100.00;101303.09;6246491;28;20057;-72
2021/07/02 04:11:18;;;;;;;53.00;23.50;;;;;;;14.37;100.00;101303.50;6246079;28;20515;-72
2021/07/02 04:14:20;;;;;;;74.60;24.80;;;;;;;14.33;100.00;101304.63;6246448;28;20048;-72
2021/07/02 04:17:21;;;;;;;59.40;24.60;;;;;;;14.38;100.00;101301.69;6246764;28;20064;-72
2021/07/02 04:20:23;;;;;;;55.45;20.75;;;;;;;14.40;100.00;101305.13;6246244;28;20050;-72
2021/07/02 04:23:26;;;;;;;77.55;24.60;;;;;;;14.33;100.00;101311.69;6247135;28;20052;-73
2021/07/02 04:26:27;;;;;;;54.75;21.13;;;;;;;14.34;100.00;101308.09;6246716;28;20057;-73
2021/07/02 04:29:29;;;;;;;49.35;19.38;;;;;;;14.43;100.00;101307.56;6245886;28;20053;-72
2021/07/02 04:32:30;;;;;;;51.22;20.08;;;;;;;14.51;100.00;101315.06;6246613;28;20056;-71
2021/07/02 04:35:32;;;;;;;66.00;21.90;;;;;;;14.38;100.00;101310.47;6246419;28;20042;-73
2021/07/02 04:38:35;;;;;;;53.58;20.83;;;;;;;14.42;100.00;101314.63;6246727;28;20493;-72
2021/07/02 04:41:36;;;;;;;57.78;20.80;;;;;;;14.34;100.00;101318.69;6246602;28;20377;-73
2021/07/02 04:44:38;;;;;;;51.50;20.15;;;;;;;14.59;100.00;101310.16;6246614;28;20420;-71
2021/07/02 04:47:39;;;;;;;67.20;21.33;;;;;;;14.36;100.00;101320.31;6245594;28;20057;-72
2021/07/02 04:50:41;;;;;;;56.83;20.38;;;;;;;14.43;100.00;101323.41;6246183;28;20528;-72
2021/07/02 04:53:45;;;;;;;56.65;21.30;;;;;;;14.41;100.00;101325.31;6243178;28;20045;-72
2021/07/02 04:56:47;;;;;;;50.63;20.10;;;;;;;14.41;100.00;101315.59;6246542;28;20053;-72
2021/07/02 04:59:50;;;;;;;54.88;19.48;;;;;;;14.39;100.00;101321.91;6246249;28;20060;-72
2021/07/02 05:02:52;;;;;;;46.83;18.70;;;;;;;14.39;100.00;101314.81;6246087;28;20483;-73
2021/07/02 05:05:53;;;;;;;53.40;23.02;;;;;;;14.37;100.00;101319.34;6245385;28;20050;-73
2021/07/02 05:08:56;;;;;;;48.50;20.50;;;;;;;14.34;100.00;101329.25;6244866;28;20061;-73
2021/07/02 05:11:57;;;;;;;52.17;21.73;;;;;;;14.35;100.00;101325.66;6246311;28;20416;-73
2021/07/02 05:14:59;;;;;;;69.32;23.13;;;;;;;14.41;100.00;101335.91;6245614;28;20053;-72
2021/07/02 05:18:00;;;;;;;70.50;23.20;;;;;;;14.30;100.00;101339.16;6244542;28;20124;-73
2021/07/02 05:21:02;;;;;;;58.47;23.80;;;;;;;14.29;100.00;101345.41;6244175;28;20065;-72
2021/07/02 05:24:05;;;;;;;61.22;24.17;;;;;;;14.29;100.00;101348.03;6244698;28;20045;-74
2021/07/02 05:27:07;;;;;;;58.20;21.42;;;;;;;14.42;100.00;101348.16;6244183;28;20119;-72
2021/07/02 05:30:09;;;;;;;66.25;22.23;;;;;;;14.43;100.00;101348.06;6241870;28;20432;-71
2021/07/02 05:33:10;;;;;;;58.97;22.17;;;;;;;14.38;100.00;101349.28;6244394;28;20049;-72
2021/07/02 05:36:12;;;;;;;60.20;21.05;;;;;;;14.30;100.00;101357.66;6244076;28;20056;-73
2021/07/02 05:39:14;;;;;;;59.13;20.38;;;;;;;14.38;100.00;101352.78;6244557;28;20060;-72
2021/07/02 05:42:21;;;;;;;51.30;20.58;;;;;;;14.34;100.00;101350.41;6248063;28;20056;-72
2021/07/02 05:45:23;;;;;;;49.47;20.73;;;;;;;14.33;100.00;101357.50;6250478;28;20143;-72
2021/07/02 05:48:24;;;;;;;48.53;21.85;;;;;;;14.42;100.00;101362.25;6248406;28;20049;-72
2021/07/02 05:51:25;;;;;;;53.25;18.75;;;;;;;14.36;100.00;101367.91;6248819;28;20052;-72
2021/07/02 05:54:29;;;;;;;53.00;20.48;;;;;;;14.47;100.00;101368.09;6248460;28;20045;-71
2021/07/02 05:57:30;;;;;;;45.13;20.05;;;;;;;14.35;100.00;101367.97;6245801;28;20440;-71
2021/07/02 06:00:32;;;;;;;52.30;20.13;;;;;;;14.38;100.00;101362.50;6248281;28;20045;-71
2021/07/02 06:03:33;;;;;;;56.13;20.08;;;;;;;14.37;100.00;101369.59;6248162;28;20045;-71
2021/07/02 06:06:34;;;;;;;41.33;19.05;;;;;;;14.34;100.00;101372.41;6247918;28;20052;-72
2021/07/02 06:09:37;;;;;;;51.38;18.13;;;;;;;14.43;100.00;101373.66;6247906;28;20045;-72
2021/07/02 06:12:38;;;;;;;39.35;19.20;;;;;;;14.34;100.00;101374.22;6248298;28;20049;-71
2021/07/02 06:15:40;;;;;;;42.45;17.67;;;;;;;14.37;100.00;101376.69;6249336;28;20057;-70
2021/07/02 06:18:41;;;;;;;39.22;18.85;;;;;;;14.42;100.00;101377.25;6249565;28;20235;-72
2021/07/02 06:21:44;;;;;;;48.75;19.02;;;;;;;14.47;100.00;101376.03;6249587;28;20049;-72
2021/07/02 06:24:47;;;;;;;42.58;16.90;;;;;;;14.54;100.00;101381.00;6249534;28;20045;-72
2021/07/02 06:27:48;;;;;;;36.55;16.85;;;;;;;14.44;100.00;101378.00;6249357;28;20049;-71
2021/07/02 06:30:50;;;;;;;47.38;17.98;;;;;;;14.33;100.00;101383.94;6249219;28;20405;-72
2021/07/02 06:33:51;;;;;;;52.28;18.80;;;;;;;14.42;100.00;101385.19;6249419;28;20041;-72
2021/07/02 06:36:52;;;;;;;39.20;18.33;;;;;;;14.34;100.00;101376.84;6249102;28;20057;-72
2021/07/02 06:39:55;;;;;;;42.47;18.83;;;;;;;14.34;100.00;101380.34;6249167;28;20060;-71
2021/07/02 06:42:56;;;;;;;43.97;18.88;;;;;;;14.33;100.00;101376.00;6249008;28;20056;-72
2021/07/02 06:45:58;;;;;;;39.65;17.85;;;;;;;14.36;100.00;101374.97;6248733;28;20048;-72
2021/07/02 06:48:59;;;;;;;37.15;16.73;;;;;;;14.45;100.00;101380.56;6248712;28;20049;-72
2021/07/02 06:52:00;;;;;;;38.75;16.38;;;;;;;14.73;100.00;101372.81;6248827;28;20050;-72
2021/07/02 06:55:03;;;;;;;40.58;16.95;;;;;;;14.58;100.00;101379.84;6248274;28;20049;-71
2021/07/02 06:58:08;;;;;;;37.65;16.25;;;;;;;14.46;100.00;101378.78;6248627;28;20049;-74
2021/07/02 07:01:10;;;;;;;38.58;17.88;;;;;;;14.67;100.00;101381.94;6248639;28;20049;-71
2021/07/02 07:04:11;;;;;;;36.33;18.20;;;;;;;14.46;100.00;101389.34;6248741;28;20056;-71
2021/07/02 07:07:13;;;;;;;39.78;18.40;;;;;;;14.46;100.00;101387.56;6248327;28;20079;-72
2021/07/02 07:10:16;;;;;;;41.60;18.85;;;;;;;14.50;100.00;101385.63;6248516;28;20054;-73
2021/07/02 07:13:17;;;;;;;47.25;18.00;;;;;;;14.57;100.00;101389.59;6248496;28;20052;-72
2021/07/02 07:16:18;;;;;;;37.67;16.67;;;;;;;14.66;100.00;101394.31;6248376;28;20061;-73
2021/07/02 07:19:23;;;;;;;42.30;17.10;;;;;;;14.69;100.00;101398.59;6248323;28;20056;-73
2021/07/02 07:22:24;;;;;;;35.60;16.45;;;;;;;14.72;100.00;101393.13;6248497;28;20175;-72
2021/07/02 07:25:27;;;;;;;32.47;16.48;;;;;;;14.75;100.00;101395.56;6248026;28;20416;-74
2021/07/02 07:28:28;;;;;;;39.20;16.25;;;;;;;14.86;100.00;101392.28;6247650;28;20053;-71
2021/07/02 07:31:30;;;;;;;36.05;15.60;;;;;;;14.85;100.00;101391.44;6247279;28;20068;-72
2021/07/02 07:34:35;;;;;;;49.50;17.48;;;;;;;14.94;100.00;101387.34;6246507;28;20049;-70
2021/07/02 07:37:37;;;;;;;42.78;16.88;;;;;;;14.91;100.00;101388.41;6247812;28;20050;-73
2021/07/02 07:40:40;;;;;;;43.15;15.27;;;;;;;14.93;100.00;101386.50;6247494;28;20060;-75
2021/07/02 07:43:41;;;;;;;39.80;16.73;;;;;;;15.22;100.00;101390.03;6247783;28;20052;-73
2021/07/02 07:46:43;;;;;;;31.80;15.02;;;;;;;15.16;100.00;101389.53;6247255;28;20061;-73
2021/07/02 07:49:45;;;;;;;28.58;13.80;;;;;;;15.15;100.00;101387.84;6247099;28;20049;-72
2021/07/02 07:52:52;;;;;;;34.55;13.45;;;;;;;15.33;100.00;101383.19;6247480;28;20049;-71
2021/07/02 07:55:55;;;;;;;33.13;13.07;;;;;;;15.31;100.00;101393.03;6247325;28;20535;-71
2021/07/02 07:58:57;;;;;;;29.77;12.77;;;;;;;15.31;100.00;101401.00;6247415;28;20049;-71
2021/07/02 08:01:58;;;;;;;23.58;11.73;;;;;;;15.27;100.00;101400.31;6247265;28;20049;-73
2021/07/02 08:04:59;;;;;;;30.38;12.75;;;;;;;15.40;100.00;101388.00;6247154;28;20512;-73
2021/07/02 08:08:01;;;;;;;26.58;11.95;;;;;;;15.20;100.00;101393.69;6247074;28;20054;-75
2021/07/02 08:11:04;;;;;;;25.17;11.40;;;;;;;15.28;100.00;101394.06;6244407;28;20599;-73
2021/07/02 08:14:06;;;;;;;26.05;10.65;;;;;;;15.34;100.00;101398.97;6231108;28;20050;-73
2021/07/02 08:17:07;;;;;;;26.60;11.13;;;;;;;15.41;100.00;101400.31;6243128;28;20053;-73
2021/07/02 08:20:11;;;;;;;17.70;9.70;;;;;;;15.50;100.00;101396.22;6235724;28;20061;-73
2021/07/02 08:23:13;;;;;;;17.70;9.02;;;;;;;15.46;100.00;101397.38;6225798;28;20053;-74
2021/07/02 08:26:17;;;;;;;19.35;8.73;;;;;;;15.63;100.00;101401.59;6225199;28;20054;-74
2021/07/02 08:29:26;;;;;;;20.25;8.98;;;;;;;15.59;100.00;101398.28;6238487;28;20239;-73
2021/07/02 08:32:27;;;;;;;20.27;9.52;;;;;;;15.72;100.00;101401.88;6245488;28;20056;-73
2021/07/02 08:35:28;;;;;;;16.95;8.93;;;;;;;16.05;100.00;101405.94;6246063;28;20041;-71
2021/07/02 08:38:30;;;;;;;21.45;10.18;;;;;;;15.88;100.00;101406.19;6245728;28;20489;-74
2021/07/02 08:41:33;;;;;;;17.40;8.57;;;;;;;15.83;100.00;101402.97;6246557;28;20053;-74
2021/07/02 08:44:35;;;;;;;19.92;9.60;;;;;;;16.13;100.00;101405.44;6243583;28;20420;-72
2021/07/02 08:47:36;;;;;;;20.70;10.32;;;;;;;16.21;100.00;101405.75;6220910;28;20050;-72
2021/07/02 08:50:37;;;;;;;23.92;11.27;;;;;;;16.26;100.00;101413.41;6242583;28;20758;-75
2021/07/02 08:53:40;;;;;;;20.88;11.10;;;;;;;16.29;100.00;101407.91;6244947;28;20045;-72
2021/07/02 08:56:56;;;;;;;24.92;11.23;;;;;;;16.36;100.00;101406.56;6245341;28;20045;-75
2021/07/02 08:59:57;;;;;;;23.33;10.75;;;;;;;16.34;100.00;101411.94;6246600;28;20056;-74
2021/07/02 09:02:58;;;;;;;24.70;11.02;;;;;;;16.42;100.00;101406.97;6242545;28;20046;-73
2021/07/02 09:06:13;;;;;;;28.85;12.18;;;;;;;16.52;100.00;101406.38;6244962;28;20053;-75
2021/07/02 09:09:15;;;;;;;21.23;11.70;;;;;;;16.62;100.00;101404.78;6221774;28;20053;-73
2021/07/02 09:12:19;;;;;;;30.65;11.77;;;;;;;16.60;100.00;101417.31;6221879;28;20060;-75
2021/07/02 09:15:20;;;;;;;23.83;10.93;;;;;;;16.55;100.00;101409.66;6222184;28;20143;-76
2021/07/02 09:18:21;;;;;;;30.25;10.38;;;;;;;16.56;100.00;101408.69;6225902;28;20050;-74
2021/07/02 09:21:24;;;;;;;22.85;10.88;;;;;;;16.66;100.00;101407.13;6249523;28;20053;-75
2021/07/02 09:24:40;;;;;;;25.70;11.68;;;;;;;16.59;100.00;101411.16;6249915;28;20053;-74
2021/07/02 09:27:43;;;;;;;28.52;12.93;;;;;;;16.48;100.00;101414.53;6251068;28;20041;-76
2021/07/02 09:30:46;;;;;;;23.80;11.57;;;;;;;16.58;100.00;101417.44;6251177;28;20049;-76
2021/07/02 09:33:47;;;;;;;23.75;11.65;;;;;;;16.62;100.00;101423.34;6250972;28;20052;-76
2021/07/02 09:36:49;;;;;;;25.20;11.68;;;;;;;16.51;100.00;101417.94;6250238;28;20065;-75
2021/07/02 09:39:51;;;;;;;30.65;11.77;;;;;;;16.49;100.00;101432.16;6249896;28;20045;-75
2021/07/02 09:43:04;;;;;;;24.95;12.48;;;;;;;16.63;100.00;101433.03;6250637;28;20500;-73
2021/07/02 09:46:07;;;;;;;27.67;12.85;;;;;;;16.61;100.00;101437.59;6249410;28;20048;-74
2021/07/02 09:49:23;;;;;;;27.35;13.02;;;;;;;16.64;100.00;101438.22;6250158;28;20046;-73
2021/07/02 09:52:25;;;;;;;22.25;12.48;;;;;;;16.47;100.00;101435.84;6284140;22;20056;-73
2021/07/02 09:55:28;;;;;;;26.98;13.20;;;;;;;16.45;100.00;101443.09;6269322;28;20048;-77
2021/07/02 09:58:36;;;;;;;28.33;12.45;;;;;;;16.58;100.00;101437.78;6274285;28;20514;-73
2021/07/02 10:01:38;;;;;;;18.80;11.38;;;;;;;16.59;100.00;101442.16;6262888;28;20059;-73
2021/07/02 10:04:58;;;;;;;25.40;11.65;;;;;;;16.59;99.36;101440.34;6250057;28;20056;-74
2021/07/02 10:08:02;;;;;;;30.33;12.50;;;;;;;16.81;100.00;101436.28;6249643;28;20045;-72
2021/07/02 10:11:05;;;;;;;24.20;12.23;;;;;;;16.81;100.00;101439.78;6248697;28;20049;-72
2021/07/02 10:14:08;;;;;;;27.77;11.55;;;;;;;16.73;99.78;101442.09;6267429;28;20049;-73
2021/07/02 10:17:09;;;;;;;18.17;11.93;;;;;;;16.78;99.22;101445.28;6291045;28;20495;-73
2021/07/02 10:20:14;;;;;;;24.98;12.13;;;;;;;16.63;100.00;101444.50;6299363;28;20053;-73
2021/07/02 10:23:24;;;;;;;25.40;11.10;;;;;;;16.63;100.00;101444.50;6299006;28;20052;-73
2021/07/02 10:26:28;;;;;;;23.17;13.07;;;;;;;16.53;100.00;101442.56;6298722;28;20056;-73
2021/07/02 10:29:32;;;;;;;23.27;12.35;;;;;;;16.63;100.00;101455.13;6297698;28;20053;-72
2021/07/02 10:32:34;;;;;;;22.05;12.45;;;;;;;16.69;100.00;101445.88;6299000;28;20139;-72
2021/07/02 10:35:36;;;;;;;26.65;13.23;;;;;;;16.52;100.00;101451.47;6298915;28;20056;-72
2021/07/02 10:38:39;;;;;;;26.38;12.95;;;;;;;16.66;100.00;101446.94;6298729;28;20053;-73
2021/07/02 10:41:40;;;;;;;29.13;13.15;;;;;;;16.57;100.00;101447.53;6298687;28;20055;-72
2021/07/02 10:45:09;;;;;;;23.05;11.75;;;;;;;16.48;100.00;101461.44;6298729;28;20052;-73
2021/07/02 10:48:10;;;;;;;26.05;11.38;;;;;;;16.57;98.89;101452.00;6298316;28;20052;-72
2021/07/02 10:51:42;;;;;;;23.88;11.52;;;;;;;16.51;100.00;101458.59;6298557;28;20411;-72
2021/07/02 10:54:44;;;;;;;25.65;12.35;;;;;;;16.58;100.00;101461.66;6298287;28;20048;-73
2021/07/02 10:57:52;;;;;;;31.45;13.65;;;;;;;16.57;100.00;101460.81;6298336;28;20053;-73
2021/07/02 11:01:09;;;;;;;24.90;12.43;;;;;;;16.65;100.00;101462.97;6298223;28;20524;-72
2021/07/02 11:04:31;;;;;;;32.38;12.40;;;;;;;16.61;100.00;101469.44;6298116;28;20045;-72
2021/07/02 11:07:43;;;;;;;26.50;12.18;;;;;;;16.58;100.00;101467.84;6298026;28;20519;-73
2021/07/02 11:10:56;;;;;;;24.70;12.48;;;;;;;16.71;100.00;101475.81;6297961;28;20052;-73
2021/07/02 11:14:07;;;;;;;24.05;12.10;;;;;;;16.56;100.00;101475.03;6297371;28;20044;-72
2021/07/02 11:17:26;;;;;;;23.30;12.55;;;;;;;16.67;100.00;101477.00;6296093;28;20047;-72
2021/07/02 11:20:29;;;;;;;;;;;;;;;16.97;99.04;101477.59;6297562;28;20052;-72
2021/07/02 11:23:41;;;;;;;25.55;12.25;;;;;;;17.01;100.00;101482.69;6297045;28;19927;-71
2021/07/02 11:26:49;;;;;;;27.60;13.38;;;;;;;17.03;99.52;101484.28;6297306;28;20129;-71
2021/07/02 11:29:54;;;;;;;33.28;15.15;;;;;;;16.95;100.00;101476.00;6297567;28;20055;-72
2021/07/02 11:32:59;;;;;;;27.92;14.13;;;;;;;16.82;100.00;101478.63;6297711;28;20060;-71
2021/07/02 11:36:10;;;;;;;29.50;14.60;;;;;;;16.88;99.91;101482.69;6297335;28;20051;-72
2021/07/02 11:39:16;;;;;;;24.17;13.48;;;;;;;17.22;96.68;101491.84;6296803;28;20131;-71
2021/07/02 11:42:18;;;;;;;33.38;14.25;;;;;;;17.04;96.45;101485.16;6297149;28;20055;-73
2021/07/02 11:45:21;;;;;;;25.60;12.82;;;;;;;16.95;97.91;101487.47;6297291;28;20047;-73
2021/07/02 11:48:32;;;;;;;24.50;12.57;;;;;;;17.03;98.25;101481.63;6296784;28;20559;-72
2021/07/02 11:51:34;;;;;;;23.13;12.48;;;;;;;17.10;96.15;101490.88;6296850;28;20442;-69
2021/07/02 11:54:35;;;;;;;27.38;13.38;;;;;;;16.92;99.37;101482.34;6296874;28;20059;-72
2021/07/02 11:57:36;;;;;;;28.33;13.07;;;;;;;16.86;98.55;101487.25;6296874;28;20044;-72
2021/07/02 12:00:37;;;;;;;26.13;13.25;;;;;;;16.77;99.95;101487.88;6296858;28;20048;-73
2021/07/02 12:03:46;;;;;;;27.70;14.95;;;;;;;17.07;95.89;101487.56;6296591;28;20048;-70
2021/07/02 12:06:49;;;;;;;30.45;14.38;;;;;;;17.16;97.72;101484.28;6296589;28;20044;-72
2021/07/02 12:09:51;;;;;;;24.42;13.25;;;;;;;17.23;97.08;101489.06;6296408;28;20492;-71
2021/07/02 12:13:05;;;;;;;27.25;12.73;;;;;;;17.28;99.44;101487.91;6296669;28;20048;-70
2021/07/02 12:16:08;;;;;;;28.98;14.27;;;;;;;17.50;94.65;101488.09;6296445;28;20573;-70
2021/07/02 12:19:16;;;;;;;31.67;14.25;;;;;;;17.35;96.43;101495.34;6296514;28;20044;-71
2021/07/02 12:22:17;;;;;;;29.30;14.60;;;;;;;17.24;98.52;101479.28;6296480;28;20044;-71
2021/07/02 12:25:19;;;;;;;28.77;13.50;;;;;;;17.25;93.60;101491.63;6296424;28;20064;-71
2021/07/02 12:28:20;;;;;;;26.92;14.45;;;;;;;17.24;93.51;101489.91;6296210;28;20070;-72
2021/07/02 12:31:22;;;;;;;31.33;14.32;;;;;;;17.25;95.42;101495.13;6296313;28;20055;-72
2021/07/02 12:34:26;;;;;;;28.08;13.40;;;;;;;17.20;93.35;101491.09;6296380;28;20060;-72
2021/07/02 12:37:27;;;;;;;24.35;13.48;;;;;;;17.28;93.87;101487.91;6296148;28;20495;-71
2021/07/02 12:40:28;;;;;;;24.63;13.40;;;;;;;17.19;95.18;101486.72;6296100;28;20056;-70
2021/07/02 12:43:30;;;;;;;35.33;14.48;;;;;;;17.08;94.65;101476.00;6269646;28;20055;-72
2021/07/02 12:46:32;;;;;;;27.70;15.02;;;;;;;17.10;94.24;101477.59;6280558;28;20067;-72
2021/07/02 12:49:36;;;;;;;23.65;14.15;;;;;;;17.20;94.42;101472.50;6271538;28;20053;-72
2021/07/02 12:55:59;;;;;;;29.30;13.00;;;;;;;17.23;96.58;101470.47;6291777;28;20044;-73
2021/07/02 12:59:01;;;;;;;25.50;14.10;;;;;;;17.34;96.00;101477.69;6300920;28;20593;-72
2021/07/02 13:02:02;;;;;;;27.08;12.77;;;;;;;17.53;94.39;101471.91;6301225;28;20056;-71
2021/07/02 13:05:09;;;;;;;28.20;13.32;;;;;;;17.63;92.46;101478.31;6301178;28;20048;-72
2021/07/02 13:08:12;;;;;;;24.45;13.65;;;;;;;17.52;92.92;101482.66;6300749;28;20492;-70
2021/07/02 13:11:20;;;;;;;26.40;12.07;;;;;;;17.50;95.09;101473.00;6300933;28;20051;-70
2021/07/02 13:14:30;;;;;;;22.75;12.70;;;;;;;17.34;96.67;101475.03;6300590;28;20048;-72
2021/07/02 13:17:43;;;;;;;21.92;12.27;;;;;;;17.62;93.24;101479.28;6284117;28;20047;-71
2021/07/02 13:20:47;;;;;;;21.65;12.77;;;;;;;17.52;95.59;101480.84;6278983;28;20412;-71
2021/07/02 13:23:54;;;;;;;20.85;12.68;;;;;;;17.46;93.22;101483.97;6276119;28;20049;-71
2021/07/02 13:26:57;;;;;;;20.83;12.43;;;;;;;17.58;92.80;101485.75;6277783;28;20049;-71
2021/07/02 13:30:05;;;;;;;34.67;13.27;;;;;;;17.51;95.61;101481.81;6289490;28;20061;-72
2021/07/02 13:33:09;;;;;;;22.27;12.18;;;;;;;17.61;95.11;101490.00;6276090;28;20045;-72
2021/07/02 13:36:13;;;;;;;21.92;12.95;;;;;;;17.58;93.63;101496.38;6276060;28;20511;-72
2021/07/02 13:39:17;;;;;;;21.88;10.93;;;;;;;17.55;93.73;101487.78;6277014;28;20140;-72
2021/07/02 13:42:23;;;;;;;22.13;12.77;;;;;;;17.68;90.24;101496.59;6299959;28;20071;-71
2021/07/02 13:45:25;;;;;;;23.02;12.27;;;;;;;17.66;88.95;101499.31;6300020;28;20060;-71
2021/07/02 13:48:26;;;;;;;22.45;11.50;;;;;;;17.52;92.68;101510.09;6299767;28;20044;-72
2021/07/02 13:51:29;;;;;;;22.48;11.95;;;;;;;17.61;91.23;101497.97;6299685;28;20044;-71